Time;durP1;ratioP1;P1;durP2;ratioP2;P2;SDS_P1;SDS_P2;PMS_P1;PMS_P2;Temp;Humidity;BMP_temperature;BMP_pressure;BME280_temperature;BME280_humidity;BME280_pressure;Samples;Min_cycle;Max_cycle;Signal;HPM_P1;HPM_P2
2024/01/30 00:02:13;;;;;;;142.23;133.10;;;4.30;99.90;;;;;;4926245;28;20043;-75
2024/01/30 00:04:38;;;;;;;151.27;141.20;;;4.40;99.90;;;;;;4933502;29;20498;-76
2024/01/30 00:07:04;;;;;;;161.87;150.87;;;4.40;99.90;;;;;;4941997;28;20039;-76
2024/01/30 00:09:30;;;;;;;113.10;105.27;;;4.40;99.90;;;;;;4950841;28;20055;-76
2024/01/30 00:11:56;;;;;;;187.87;175.40;;;4.40;99.90;;;;;;4948072;28;20134;-75
2024/01/30 00:14:22;;;;;;;130.00;121.03;;;4.40;99.90;;;;;;4946788;28;20044;-76
2024/01/30 00:16:47;;;;;;;104.10;96.73;;;4.40;99.90;;;;;;4951070;28;20047;-76
2024/01/30 00:19:13;;;;;;;130.43;121.50;;;4.40;99.90;;;;;;4955987;28;20494;-76
2024/01/30 00:21:39;;;;;;;178.97;167.27;;;4.40;99.90;;;;;;4951321;28;20044;-76
2024/01/30 00:24:05;;;;;;;108.27;100.83;;;4.30;99.90;;;;;;4931364;28;20044;-76
2024/01/30 00:26:30;;;;;;;111.20;103.50;;;4.30;99.90;;;;;;4927825;29;20134;-76
2024/01/30 00:28:56;;;;;;;140.10;130.80;;;4.30;99.90;;;;;;4926315;28;20854;-76
2024/01/30 00:31:22;;;;;;;123.40;114.60;;;4.30;99.90;;;;;;4940470;28;20039;-76
2024/01/30 00:33:47;;;;;;;110.87;102.83;;;4.30;99.90;;;;;;4940933;28;20055;-76
2024/01/30 00:36:13;;;;;;;152.57;142.50;;;4.30;99.90;;;;;;4937390;28;20039;-76
2024/01/30 00:38:40;;;;;;;102.90;95.37;;;4.30;99.90;;;;;;4938259;29;20047;-75
2024/01/30 00:41:08;;;;;;;102.18;94.68;;;4.30;99.90;;;;;;4936013;29;20035;-76
2024/01/30 00:43:33;;;;;;;119.00;110.70;;;4.30;99.90;;;;;;4949649;28;20498;-75
2024/01/30 00:45:59;;;;;;;135.20;126.10;;;4.30;99.90;;;;;;4944727;28;20137;-76
2024/01/30 00:48:25;;;;;;;97.13;89.80;;;4.30;99.90;;;;;;4935668;29;20425;-76
2024/01/30 00:50:51;;;;;;;157.37;146.77;;;4.30;99.90;;;;;;4942387;28;20046;-76
2024/01/30 00:53:16;;;;;;;103.30;95.80;;;4.20;99.90;;;;;;4956465;28;20054;-76
2024/01/30 00:55:42;;;;;;;122.77;114.23;;;4.20;99.90;;;;;;4930228;29;20052;-76
2024/01/30 00:58:08;;;;;;;107.60;99.83;;;4.20;99.90;;;;;;4944988;28;20482;-75
2024/01/30 01:00:33;;;;;;;139.53;129.73;;;4.20;99.90;;;;;;4948785;28;20098;-76
2024/01/30 01:02:59;;;;;;;102.77;95.27;;;4.20;99.90;;;;;;4936397;29;20505;-76
2024/01/30 01:05:25;;;;;;;116.07;107.77;;;4.20;99.90;;;;;;4951282;28;20416;-75
2024/01/30 01:07:51;;;;;;;116.63;108.43;;;4.20;99.90;;;;;;4949034;28;20054;-76
2024/01/30 01:10:18;;;;;;;103.23;95.63;;;4.20;99.90;;;;;;4935024;28;20047;-76
2024/01/30 01:12:44;;;;;;;136.05;126.72;;;4.20;99.90;;;;;;4950861;28;20051;-76
2024/01/30 01:15:10;;;;;;;119.38;110.25;;;4.20;99.90;;;;;;4938468;28;20039;-76
2024/01/30 01:17:40;;;;;;;105.80;97.68;;;4.20;99.90;;;;;;4941573;28;20036;-76
2024/01/30 01:20:06;;;;;;;118.25;109.82;;;4.20;99.90;;;;;;4941093;28;20118;-76
2024/01/30 01:22:32;;;;;;;93.43;85.95;;;4.20;99.90;;;;;;4947319;28;20098;-76
2024/01/30 01:24:59;;;;;;;109.57;101.93;;;4.20;99.90;;;;;;4942874;28;20538;-76
2024/01/30 01:27:24;;;;;;;107.60;99.75;;;4.30;99.90;;;;;;4947634;28;20040;-76
2024/01/30 01:29:51;;;;;;;134.10;124.80;;;4.30;99.90;;;;;;4949563;28;21254;-76
2024/01/30 01:32:16;;;;;;;116.32;108.05;;;4.30;99.90;;;;;;4933802;28;20501;-75
2024/01/30 01:34:42;;;;;;;138.33;128.70;;;4.40;99.90;;;;;;4930264;29;20144;-76
2024/01/30 01:37:08;;;;;;;152.37;141.87;;;4.40;99.90;;;;;;4947455;28;20397;-75
2024/01/30 01:39:34;;;;;;;106.13;98.27;;;4.40;99.90;;;;;;4939546;28;20042;-76
2024/01/30 01:41:59;;;;;;;128.90;119.80;;;4.40;99.90;;;;;;4944598;28;20461;-76
2024/01/30 01:44:25;;;;;;;110.57;102.47;;;4.40;99.90;;;;;;4949128;28;20050;-76
2024/01/30 01:46:52;;;;;;;161.97;151.23;;;4.40;99.90;;;;;;4941973;28;20075;-76
2024/01/30 01:49:19;;;;;;;103.25;95.43;;;4.40;99.90;;;;;;4941593;28;20039;-76
2024/01/30 01:51:47;;;;;;;126.20;117.30;;;4.30;99.90;;;;;;4949942;28;20084;-76
2024/01/30 01:54:15;;;;;;;145.73;136.23;;;4.30;99.90;;;;;;4928409;28;20054;-76
2024/01/30 01:56:42;;;;;;;116.25;107.78;;;4.30;99.90;;;;;;4948125;28;20031;-76
2024/01/30 01:59:09;;;;;;;149.82;139.70;;;4.30;99.90;;;;;;4947738;28;20119;-76
2024/01/30 02:01:38;;;;;;;109.20;101.20;;;4.30;99.90;;;;;;4931417;29;20063;-76
2024/01/30 02:04:05;;;;;;;107.15;99.20;;;4.30;99.90;;;;;;4933348;28;20043;-76
2024/01/30 02:06:33;;;;;;;121.50;112.65;;;4.30;99.90;;;;;;4946067;29;20039;-76
2024/01/30 02:08:59;;;;;;;124.97;115.63;;;4.30;99.90;;;;;;4930942;29;20056;-77
2024/01/30 02:11:24;;;;;;;121.93;113.57;;;4.40;99.90;;;;;;4941003;29;20054;-76
2024/01/30 02:13:50;;;;;;;118.60;110.27;;;4.40;99.90;;;;;;4951794;28;20067;-76
2024/01/30 02:16:19;;;;;;;140.43;130.73;;;4.40;99.90;;;;;;4932937;29;20050;-76
2024/01/30 02:18:48;;;;;;;209.75;196.18;;;4.50;99.90;;;;;;4942450;28;20078;-76
2024/01/30 02:21:17;;;;;;;132.48;123.53;;;4.60;99.90;;;;;;4943856;29;20552;-76
2024/01/30 02:23:46;;;;;;;133.15;124.22;;;4.60;99.90;;;;;;4938252;29;20765;-75
2024/01/30 02:26:12;;;;;;;184.25;171.80;;;4.60;99.90;;;;;;4936408;29;20568;-76
2024/01/30 02:28:38;;;;;;;160.53;149.57;;;4.70;99.90;;;;;;4945355;28;20032;-76
2024/01/30 02:31:04;;;;;;;163.88;153.05;;;4.70;99.90;;;;;;4940182;28;20047;-76
2024/01/30 02:33:30;;;;;;;302.88;281.25;;;4.70;99.90;;;;;;4927912;29;20130;-75
2024/01/30 02:35:56;;;;;;;225.43;211.50;;;4.80;99.90;;;;;;4934726;29;20071;-76
2024/01/30 02:38:23;;;;;;;156.40;146.17;;;4.80;99.90;;;;;;4931897;29;20070;-76
2024/01/30 02:40:48;;;;;;;276.35;257.30;;;4.80;99.90;;;;;;4943306;28;20597;-75
2024/01/30 02:43:16;;;;;;;238.50;222.97;;;4.90;99.90;;;;;;4945576;28;20027;-76
2024/01/30 02:45:41;;;;;;;190.63;178.10;;;4.90;99.90;;;;;;4951712;29;20118;-76
2024/01/30 02:48:07;;;;;;;206.00;192.63;;;5.00;99.90;;;;;;4925111;29;20054;-76
2024/01/30 02:50:33;;;;;;;179.13;167.47;;;5.00;99.90;;;;;;4943262;28;20079;-76
2024/01/30 02:52:58;;;;;;;167.57;156.90;;;5.00;99.90;;;;;;4928466;29;20504;-76
2024/01/30 02:55:24;;;;;;;185.47;173.27;;;5.00;99.90;;;;;;4937540;28;20040;-76
2024/01/30 02:57:50;;;;;;;199.73;186.77;;;5.00;99.90;;;;;;4943273;28;20493;-76
2024/01/30 03:00:16;;;;;;;151.17;141.10;;;4.90;99.90;;;;;;4936671;28;20070;-76
2024/01/30 03:02:41;;;;;;;229.33;214.40;;;5.00;99.90;;;;;;4950610;28;20513;-77
2024/01/30 03:05:08;;;;;;;144.70;134.70;;;4.90;99.90;;;;;;4930746;29;20035;-76
2024/01/30 03:07:34;;;;;;;224.90;210.73;;;4.90;99.90;;;;;;4925996;29;20085;-76
2024/01/30 03:10:00;;;;;;;243.27;227.25;;;4.90;99.90;;;;;;4935481;29;20063;-75
2024/01/30 03:12:26;;;;;;;199.00;186.05;;;4.90;99.90;;;;;;4952951;28;20098;-76
2024/01/30 03:14:52;;;;;;;151.50;141.70;;;4.90;99.90;;;;;;4940450;28;20039;-76
2024/01/30 03:17:18;;;;;;;179.00;167.13;;;4.90;99.90;;;;;;4940773;28;20118;-76
2024/01/30 03:19:43;;;;;;;168.83;158.30;;;4.90;99.90;;;;;;4950126;29;20541;-76
2024/01/30 03:22:09;;;;;;;180.47;168.83;;;4.90;99.90;;;;;;4954623;29;20685;-75
2024/01/30 03:24:35;;;;;;;137.63;128.50;;;4.90;99.90;;;;;;4953430;28;20122;-76
2024/01/30 03:27:01;;;;;;;179.70;168.13;;;4.80;99.90;;;;;;4954046;28;20081;-76
2024/01/30 03:29:27;;;;;;;198.93;185.70;;;4.80;99.90;;;;;;4951164;28;20043;-76
2024/01/30 03:31:52;;;;;;;211.70;198.07;;;4.80;99.90;;;;;;4934170;29;20677;-76
2024/01/30 03:34:18;;;;;;;207.63;194.10;;;4.80;99.90;;;;;;4954751;28;20117;-75
2024/01/30 03:36:44;;;;;;;207.40;193.57;;;4.80;99.90;;;;;;4931266;29;20063;-76
2024/01/30 03:39:09;;;;;;;173.07;161.90;;;4.80;99.90;;;;;;4949604;28;20113;-76
2024/01/30 03:41:35;;;;;;;212.50;199.10;;;4.90;99.90;;;;;;4938093;29;20043;-76
2024/01/30 03:44:01;;;;;;;168.47;157.40;;;4.90;99.90;;;;;;4943892;28;20043;-76
2024/01/30 03:46:26;;;;;;;165.10;154.43;;;4.90;99.90;;;;;;4942810;28;20501;-76
2024/01/30 03:48:52;;;;;;;160.03;149.13;;;4.90;99.90;;;;;;4930489;29;20043;-76
2024/01/30 03:51:18;;;;;;;180.77;169.30;;;4.90;99.90;;;;;;4934989;29;20043;-76
2024/01/30 03:53:43;;;;;;;231.13;216.77;;;4.90;99.90;;;;;;4951251;29;20075;-75
2024/01/30 03:56:09;;;;;;;260.17;243.70;;;4.90;99.90;;;;;;4932556;29;20043;-75
2024/01/30 03:58:35;;;;;;;171.73;160.80;;;4.90;99.90;;;;;;4934464;29;20040;-76
2024/01/30 04:01:01;;;;;;;195.73;182.90;;;5.00;99.90;;;;;;4937305;29;20449;-76
2024/01/30 04:03:27;;;;;;;226.07;210.43;;;5.00;99.90;;;;;;4945390;28;20050;-76
2024/01/30 04:05:53;;;;;;;230.77;216.37;;;5.10;99.90;;;;;;4942714;28;20044;-76
2024/01/30 04:08:19;;;;;;;178.48;166.88;;;5.10;99.90;;;;;;4931166;28;20034;-76
2024/01/30 04:10:46;;;;;;;236.65;220.90;;;5.10;99.90;;;;;;4931424;29;20106;-76
2024/01/30 04:13:11;;;;;;;220.80;206.13;;;5.20;99.90;;;;;;4963349;28;20047;-76
2024/01/30 04:15:37;;;;;;;226.20;211.87;;;5.20;99.90;;;;;;4929950;29;20044;-76
2024/01/30 04:18:03;;;;;;;196.77;183.97;;;5.20;99.90;;;;;;4930642;29;20040;-77
2024/01/30 04:20:29;;;;;;;288.42;268.85;;;5.20;99.90;;;;;;4943750;28;20402;-76
2024/01/30 04:22:55;;;;;;;235.23;220.25;;;5.30;99.90;;;;;;4930836;29;20054;-76
2024/01/30 04:25:21;;;;;;;160.17;149.83;;;5.30;99.90;;;;;;4929909;29;20044;-76
2024/01/30 04:27:47;;;;;;;221.30;207.07;;;5.30;99.90;;;;;;4956650;28;20286;-76
2024/01/30 04:30:13;;;;;;;189.33;177.50;;;5.30;99.90;;;;;;4953245;28;20138;-76
2024/01/30 04:32:39;;;;;;;154.10;143.67;;;5.30;99.90;;;;;;4928243;28;20090;-76
2024/01/30 04:35:05;;;;;;;275.97;257.93;;;5.30;99.90;;;;;;4953006;28;20298;-76
2024/01/30 04:37:31;;;;;;;246.40;230.67;;;5.30;99.90;;;;;;4948232;28;20034;-75
2024/01/30 04:39:56;;;;;;;167.20;156.53;;;5.30;99.90;;;;;;4941290;29;20035;-76
2024/01/30 04:42:22;;;;;;;202.63;189.73;;;5.30;99.90;;;;;;4945211;28;20294;-77
2024/01/30 04:44:48;;;;;;;279.43;261.03;;;5.30;99.90;;;;;;4936937;29;20044;-77
2024/01/30 04:47:14;;;;;;;182.53;171.17;;;5.40;99.90;;;;;;4946217;28;20043;-77
2024/01/30 04:49:40;;;;;;;288.13;269.40;;;5.40;99.90;;;;;;4948426;28;20153;-76
2024/01/30 04:52:06;;;;;;;215.18;200.85;;;5.40;99.90;;;;;;4937558;29;20548;-76
2024/01/30 04:54:32;;;;;;;224.75;210.68;;;5.40;99.90;;;;;;4951882;28;20043;-76
2024/01/30 04:56:58;;;;;;;239.95;224.15;;;5.40;99.90;;;;;;4945617;28;20434;-76
2024/01/30 04:59:24;;;;;;;222.30;208.77;;;5.50;99.90;;;;;;4950752;28;20094;-76
2024/01/30 05:01:49;;;;;;;259.17;242.77;;;5.50;99.90;;;;;;4941744;28;20406;-77
2024/01/30 05:04:15;;;;;;;244.00;228.53;;;5.50;99.90;;;;;;4955484;28;20069;-76
2024/01/30 05:06:41;;;;;;;285.20;266.87;;;5.60;99.90;;;;;;4945925;29;20047;-76
2024/01/30 05:09:07;;;;;;;217.17;203.30;;;5.60;99.90;;;;;;4948414;28;20055;-77
2024/01/30 05:11:40;;;;;;;324.58;302.65;;;5.60;99.90;;;;;;4932245;29;20047;-76
2024/01/30 05:14:07;;;;;;;219.32;204.85;;;5.60;99.90;;;;;;4950969;29;20043;-76
2024/01/30 05:16:33;;;;;;;187.23;174.90;;;5.60;99.90;;;;;;4950486;28;20039;-76
2024/01/30 05:18:59;;;;;;;243.83;227.97;;;5.60;99.90;;;;;;4947804;28;20039;-76
2024/01/30 05:21:25;;;;;;;226.45;211.63;;;5.60;99.90;;;;;;4943455;28;20333;-77
2024/01/30 05:23:50;;;;;;;233.77;218.83;;;5.60;99.90;;;;;;4941422;29;20043;-77
2024/01/30 05:26:16;;;;;;;244.13;228.23;;;5.60;99.90;;;;;;4935440;29;20497;-76
2024/01/30 05:28:44;;;;;;;206.97;194.07;;;5.60;99.90;;;;;;4944723;29;20539;-76
2024/01/30 05:31:10;;;;;;;270.95;252.73;;;5.60;99.90;;;;;;4938054;29;20130;-76
2024/01/30 05:33:35;;;;;;;293.33;273.77;;;5.60;99.90;;;;;;4944546;28;20139;-76
2024/01/30 05:36:01;;;;;;;276.93;259.03;;;5.60;99.90;;;;;;4968888;28;20035;-76
2024/01/30 05:38:27;;;;;;;292.73;273.97;;;5.60;99.90;;;;;;4944248;29;20095;-76
2024/01/30 05:40:53;;;;;;;280.90;262.43;;;5.60;99.90;;;;;;4945551;28;20126;-76
2024/01/30 05:43:18;;;;;;;273.13;254.60;;;5.60;99.90;;;;;;4929817;29;20043;-76
2024/01/30 05:45:44;;;;;;;203.73;190.90;;;5.60;99.90;;;;;;4945105;29;20036;-76
2024/01/30 05:48:10;;;;;;;303.27;283.70;;;5.70;99.90;;;;;;4945898;28;20043;-76
2024/01/30 05:50:35;;;;;;;213.87;200.10;;;5.70;99.90;;;;;;4923163;29;20376;-76
2024/01/30 05:53:01;;;;;;;189.87;177.97;;;5.70;99.90;;;;;;4946804;29;20450;-76
2024/01/30 05:55:27;;;;;;;247.67;231.60;;;5.70;99.90;;;;;;4927762;29;20500;-75
2024/01/30 05:57:53;;;;;;;279.03;260.80;;;5.70;99.90;;;;;;4947493;28;20032;-75
2024/01/30 06:00:19;;;;;;;290.90;271.43;;;5.80;99.90;;;;;;4951652;28;20054;-76
2024/01/30 06:02:44;;;;;;;251.20;234.57;;;5.70;99.90;;;;;;4949945;28;20748;-76
2024/01/30 06:05:10;;;;;;;198.47;185.67;;;5.70;99.90;;;;;;4948083;28;20174;-75
2024/01/30 06:07:36;;;;;;;274.00;256.03;;;5.80;99.90;;;;;;4936161;28;20078;-76
2024/01/30 06:10:02;;;;;;;252.07;235.83;;;5.70;99.90;;;;;;4952918;28;20425;-76
2024/01/30 06:12:28;;;;;;;295.88;276.65;;;5.70;99.90;;;;;;4949968;28;20039;-75
2024/01/30 06:14:56;;;;;;;188.97;177.00;;;5.70;99.90;;;;;;4928215;29;20074;-75
2024/01/30 06:17:22;;;;;;;256.98;240.20;;;5.70;99.90;;;;;;4943767;28;20040;-75
2024/01/30 06:19:48;;;;;;;239.20;223.82;;;5.70;99.90;;;;;;4944384;29;20042;-75
2024/01/30 06:22:14;;;;;;;172.80;161.90;;;5.70;99.90;;;;;;4945243;28;20404;-75
2024/01/30 06:24:40;;;;;;;252.80;236.33;;;5.80;99.90;;;;;;4943302;28;20514;-75
2024/01/30 06:27:05;;;;;;;191.83;179.77;;;5.80;99.90;;;;;;4950161;28;20036;-75
2024/01/30 06:29:31;;;;;;;259.50;242.47;;;5.80;99.90;;;;;;4945862;28;20035;-76
2024/01/30 06:31:57;;;;;;;226.57;212.23;;;5.80;99.90;;;;;;4926210;29;20047;-76
2024/01/30 06:34:22;;;;;;;244.00;228.87;;;5.80;99.90;;;;;;4947486;28;20039;-76
2024/01/30 06:36:48;;;;;;;273.73;256.67;;;5.80;99.90;;;;;;4950274;29;20067;-77
2024/01/30 06:39:14;;;;;;;186.07;174.57;;;5.90;99.90;;;;;;4949480;29;20040;-77
2024/01/30 06:41:40;;;;;;;309.40;289.13;;;5.90;99.90;;;;;;4955181;29;20040;-77
2024/01/30 06:44:08;;;;;;;208.87;195.97;;;5.90;99.90;;;;;;4931242;29;20047;-77
2024/01/30 06:46:34;;;;;;;257.30;240.48;;;5.90;99.90;;;;;;4934906;29;20047;-77
2024/01/30 06:48:59;;;;;;;225.88;211.38;;;5.90;99.90;;;;;;4955079;29;20043;-77
2024/01/30 06:51:25;;;;;;;287.43;269.07;;;6.00;99.90;;;;;;4934081;28;20098;-77
2024/01/30 06:53:51;;;;;;;200.97;188.70;;;6.00;99.90;;;;;;4925863;29;20135;-77
2024/01/30 06:56:20;;;;;;;321.13;299.30;;;6.00;99.90;;;;;;4937363;29;20046;-77
2024/01/30 06:58:50;;;;;;;279.60;261.15;;;6.00;99.90;;;;;;4943303;28;20401;-77
2024/01/30 07:01:16;;;;;;;324.02;302.92;;;6.10;99.90;;;;;;4948580;28;20043;-77
2024/01/30 07:03:42;;;;;;;285.55;267.02;;;6.00;99.90;;;;;;4942476;28;20517;-77
2024/01/30 07:06:10;;;;;;;288.05;270.55;;;6.10;99.90;;;;;;4952376;29;20043;-77
2024/01/30 07:08:38;;;;;;;279.15;261.00;;;6.10;99.90;;;;;;4951364;28;20050;-77
2024/01/30 07:11:05;;;;;;;288.42;269.55;;;6.10;99.90;;;;;;4932961;29;20043;-77
2024/01/30 07:13:31;;;;;;;289.63;271.27;;;6.10;99.90;;;;;;4952177;29;20050;-76
2024/01/30 07:15:57;;;;;;;346.43;321.37;;;6.10;99.90;;;;;;4959697;28;20130;-76
2024/01/30 07:18:23;;;;;;;277.07;259.77;;;6.20;99.90;;;;;;4945171;29;20040;-77
2024/01/30 07:20:52;;;;;;;307.80;286.92;;;6.20;99.90;;;;;;4965326;28;20035;-76
2024/01/30 07:23:17;;;;;;;224.20;210.50;;;6.20;99.90;;;;;;4954074;28;20039;-76
2024/01/30 07:25:44;;;;;;;318.03;296.50;;;6.20;99.90;;;;;;4977139;28;20046;-78
2024/01/30 07:28:12;;;;;;;300.20;280.52;;;6.20;99.90;;;;;;4937845;29;20114;-77
2024/01/30 07:30:38;;;;;;;322.65;300.48;;;6.30;99.90;;;;;;4959574;28;20075;-77
2024/01/30 07:33:04;;;;;;;287.55;268.85;;;6.30;99.90;;;;;;4932713;28;20510;-77
2024/01/30 07:35:30;;;;;;;238.13;222.70;;;6.30;99.90;;;;;;4950058;28;20039;-77
2024/01/30 07:37:57;;;;;;;305.23;285.73;;;6.30;99.90;;;;;;4939652;28;20357;-76
2024/01/30 07:40:23;;;;;;;251.00;234.45;;;6.40;99.90;;;;;;4963111;28;20050;-77
2024/01/30 07:42:49;;;;;;;323.17;302.27;;;6.40;99.90;;;;;;4944457;29;20070;-77
2024/01/30 07:45:15;;;;;;;248.43;232.43;;;6.40;99.90;;;;;;4965734;28;20047;-78
2024/01/30 07:47:42;;;;;;;305.30;285.67;;;6.40;99.90;;;;;;4958581;29;20043;-77
2024/01/30 07:50:09;;;;;;;237.25;222.25;;;6.40;99.90;;;;;;4940276;29;20055;-77
2024/01/30 07:52:35;;;;;;;325.08;302.95;;;6.40;99.90;;;;;;4942928;28;20540;-77
2024/01/30 07:55:00;;;;;;;303.23;283.57;;;6.40;99.90;;;;;;4941292;29;20036;-77
2024/01/30 07:57:26;;;;;;;274.57;256.53;;;6.40;99.90;;;;;;4946234;28;20138;-77
2024/01/30 07:59:51;;;;;;;237.13;221.47;;;6.40;99.90;;;;;;4933957;28;20089;-78
2024/01/30 08:02:17;;;;;;;294.90;275.23;;;6.40;99.90;;;;;;4947403;28;20051;-77
2024/01/30 08:04:43;;;;;;;285.63;266.83;;;6.40;99.90;;;;;;4927947;29;20054;-78
2024/01/30 08:07:09;;;;;;;285.03;266.57;;;6.50;99.90;;;;;;4948981;29;20565;-78
2024/01/30 08:09:34;;;;;;;302.37;283.33;;;6.50;99.90;;;;;;4932573;29;20047;-77
2024/01/30 08:12:00;;;;;;;326.93;306.33;;;6.50;99.90;;;;;;4946365;28;20483;-78
2024/01/30 08:14:26;;;;;;;302.40;283.67;;;6.60;99.90;;;;;;4943735;28;20532;-78
2024/01/30 08:16:51;;;;;;;496.70;460.57;;;6.70;99.90;;;;;;4941646;28;20043;-78
2024/01/30 08:19:19;;;;;;;377.60;351.23;;;6.80;99.90;;;;;;4937744;29;20133;-78
2024/01/30 08:21:44;;;;;;;325.27;304.90;;;7.00;99.90;;;;;;4945090;28;20103;-78
2024/01/30 08:24:10;;;;;;;402.40;374.57;;;7.20;99.90;;;;;;4954867;28;20441;-78
2024/01/30 08:26:36;;;;;;;434.27;403.20;;;7.30;99.90;;;;;;4954650;28;20052;-78
2024/01/30 08:29:02;;;;;;;425.40;396.58;;;7.40;99.90;;;;;;4938133;28;20046;-77
2024/01/30 08:31:28;;;;;;;401.73;374.63;;;7.50;99.90;;;;;;4947636;28;20098;-77
2024/01/30 08:33:53;;;;;;;346.73;324.00;;;7.60;99.90;;;;;;4937575;28;20047;-78
2024/01/30 08:36:20;;;;;;;382.83;356.53;;;7.60;99.90;;;;;;4943376;29;20418;-78
2024/01/30 08:38:45;;;;;;;436.73;402.98;;;7.70;99.90;;;;;;4947508;28;20070;-78
2024/01/30 08:41:11;;;;;;;471.37;435.90;;;7.80;99.90;;;;;;4931641;29;20078;-78
2024/01/30 08:43:37;;;;;;;499.73;463.23;;;7.80;99.90;;;;;;4955131;28;20098;-78
2024/01/30 08:46:03;;;;;;;456.13;421.87;;;7.90;99.90;;;;;;4939183;28;20475;-77
2024/01/30 08:48:29;;;;;;;418.63;388.83;;;7.90;99.90;;;;;;4929976;29;20042;-78
2024/01/30 08:50:55;;;;;;;488.60;451.27;;;8.00;99.90;;;;;;4948556;28;20134;-78
2024/01/30 08:53:20;;;;;;;521.70;481.43;;;8.00;99.90;;;;;;4947948;28;20101;-78
2024/01/30 08:55:46;;;;;;;491.13;454.60;;;8.10;99.90;;;;;;4964367;28;20040;-78
2024/01/30 08:58:12;;;;;;;474.83;437.80;;;8.10;99.90;;;;;;4947575;28;20053;-78
2024/01/30 09:00:38;;;;;;;452.30;417.63;;;8.10;99.90;;;;;;4938340;28;20043;-78
2024/01/30 09:03:04;;;;;;;484.57;446.63;;;8.10;99.90;;;;;;4949040;28;20711;-77
2024/01/30 09:05:30;;;;;;;460.63;425.53;;;8.20;99.90;;;;;;4952274;28;20039;-78
2024/01/30 09:07:55;;;;;;;513.83;472.60;;;8.20;99.90;;;;;;4950772;28;20645;-77
2024/01/30 09:10:21;;;;;;;510.83;472.40;;;8.20;99.90;;;;;;4931226;29;20071;-77
2024/01/30 09:12:47;;;;;;;459.00;423.53;;;8.30;99.90;;;;;;4966571;28;20050;-78
2024/01/30 09:15:14;;;;;;;405.20;374.67;;;8.30;99.90;;;;;;4946418;28;20310;-77
2024/01/30 09:17:39;;;;;;;407.23;377.67;;;8.30;99.90;;;;;;4955781;28;20769;-77
2024/01/30 09:20:05;;;;;;;578.17;529.20;;;8.40;99.90;;;;;;4925271;29;20291;-78
2024/01/30 09:22:31;;;;;;;501.43;460.87;;;8.40;99.90;;;;;;4940734;28;20067;-77
2024/01/30 09:24:57;;;;;;;542.53;497.17;;;8.50;99.90;;;;;;4941842;29;20382;-78
2024/01/30 09:27:23;;;;;;;502.13;463.93;;;8.50;99.90;;;;;;4950370;28;20113;-78
2024/01/30 09:29:49;;;;;;;520.90;475.63;;;8.50;99.90;;;;;;4932898;29;20373;-78
2024/01/30 09:32:15;;;;;;;464.07;429.20;;;8.60;99.90;;;;;;4937367;28;20043;-78
2024/01/30 09:34:41;;;;;;;470.53;434.23;;;8.60;99.90;;;;;;4931312;28;20051;-77
2024/01/30 09:37:07;;;;;;;555.37;513.73;;;8.60;99.90;;;;;;4932139;28;20758;-78
2024/01/30 09:39:33;;;;;;;572.47;528.17;;;8.60;99.90;;;;;;4927974;29;20086;-78
2024/01/30 09:42:28;;;;;;;461.70;427.93;;;8.50;99.90;;;;;;4947983;28;20334;-78
2024/01/30 09:44:55;;;;;;;452.02;416.55;;;8.50;99.90;;;;;;4938555;28;20067;-78
2024/01/30 09:47:20;;;;;;;443.47;408.17;;;8.40;99.90;;;;;;4947145;28;20076;-78
2024/01/30 09:49:47;;;;;;;499.23;460.97;;;8.40;99.90;;;;;;4944946;28;20290;-78
2024/01/30 09:52:13;;;;;;;575.23;526.40;;;8.40;99.90;;;;;;4951811;28;20126;-77
2024/01/30 09:54:41;;;;;;;464.37;430.43;;;8.40;99.90;;;;;;4925176;29;20343;-77
2024/01/30 09:57:07;;;;;;;466.87;432.00;;;8.40;99.90;;;;;;4935368;29;20295;-77
2024/01/30 09:59:33;;;;;;;498.30;459.57;;;8.30;99.90;;;;;;4950404;29;20703;-77
2024/01/30 10:01:59;;;;;;;508.13;467.90;;;8.30;99.90;;;;;;4950831;28;20283;-77
2024/01/30 10:04:25;;;;;;;506.17;467.63;;;8.30;99.90;;;;;;4953634;28;20219;-77
2024/01/30 10:06:51;;;;;;;473.40;437.87;;;8.30;99.90;;;;;;4948926;28;20036;-77
2024/01/30 10:09:16;;;;;;;499.27;461.17;;;8.40;99.90;;;;;;4936905;28;20210;-78
2024/01/30 10:11:42;;;;;;;509.10;470.30;;;8.40;99.90;;;;;;4933548;29;20295;-76
2024/01/30 10:14:08;;;;;;;556.43;511.33;;;8.30;99.90;;;;;;4936168;29;20043;-76
2024/01/30 10:16:37;;;;;;;484.17;446.40;;;8.40;99.90;;;;;;4951124;28;20094;-76
2024/01/30 10:19:02;;;;;;;616.20;563.17;;;8.40;99.90;;;;;;4946545;28;20102;-76
2024/01/30 10:21:30;;;;;;;581.33;532.30;;;8.40;99.90;;;;;;4931692;29;20939;-76
2024/01/30 10:23:56;;;;;;;648.20;587.23;;;8.40;99.90;;;;;;4937861;29;20044;-75
2024/01/30 10:26:22;;;;;;;665.97;604.53;;;8.50;99.90;;;;;;4940006;28;20334;-76
2024/01/30 10:28:48;;;;;;;611.80;557.70;;;8.60;99.90;;;;;;4931016;29;20450;-76
2024/01/30 10:31:18;;;;;;;524.13;483.13;;;8.70;99.90;;;;;;4950267;28;20084;-76
2024/01/30 10:33:45;;;;;;;682.30;616.37;;;8.70;99.90;;;;;;4949818;28;20279;-76
2024/01/30 10:36:13;;;;;;;732.73;656.97;;;8.80;99.90;;;;;;4942392;29;20836;-76
2024/01/30 10:38:42;;;;;;;638.90;577.33;;;8.70;99.90;;;;;;4949434;28;20649;-76
2024/01/30 10:41:13;;;;;;;554.90;509.37;;;8.70;99.90;;;;;;4944899;28;20306;-76
2024/01/30 10:43:42;;;;;;;600.33;549.77;;;8.70;99.90;;;;;;4945627;28;20353;-76
2024/01/30 10:46:17;;;;;;;671.27;601.13;;;8.60;99.90;;;;;;4950229;28;20287;-76
2024/01/30 10:48:46;;;;;;;618.13;558.87;;;8.60;99.90;;;;;;4951678;28;20341;-76
2024/01/30 10:51:14;;;;;;;705.27;638.10;;;8.50;99.90;;;;;;4940990;28;20354;-76
2024/01/30 10:53:41;;;;;;;609.90;557.67;;;8.50;99.90;;;;;;4953846;28;20286;-75
2024/01/30 10:56:08;;;;;;;595.43;547.37;;;8.40;99.90;;;;;;4938129;29;20337;-76
2024/01/30 10:58:33;;;;;;;541.77;499.10;;;8.40;99.90;;;;;;4952159;28;20852;-76
2024/01/30 11:01:00;;;;;;;881.03;738.87;;;8.30;99.90;;;;;;4944391;28;20362;-76
2024/01/30 11:03:26;;;;;;;640.30;580.03;;;8.30;99.90;;;;;;4935342;29;20114;-76
2024/01/30 11:05:52;;;;;;;529.53;488.57;;;8.30;99.90;;;;;;4944884;28;20310;-75
2024/01/30 11:08:27;;;;;;;682.73;617.90;;;8.20;99.90;;;;;;4949960;28;20278;-75
2024/01/30 11:10:57;;;;;;;918.38;755.90;;;8.20;99.90;;;;;;4934768;29;20146;-76
2024/01/30 11:13:29;;;;;;;606.78;555.35;;;8.20;99.90;;;;;;4951317;28;20050;-76
2024/01/30 11:16:00;;;;;;;538.03;491.13;;;8.10;99.90;;;;;;4940323;28;20045;-76
2024/01/30 11:18:28;;;;;;;509.52;469.50;;;8.10;99.90;;;;;;4937356;29;20047;-76
2024/01/30 11:20:56;;;;;;;569.65;520.70;;;8.10;99.90;;;;;;4955545;28;20039;-75
2024/01/30 11:23:22;;;;;;;514.15;474.50;;;8.10;99.90;;;;;;4934809;29;20066;-76
2024/01/30 11:25:48;;;;;;;448.60;416.17;;;8.10;99.90;;;;;;4937516;29;20058;-75
2024/01/30 11:28:16;;;;;;;532.07;490.93;;;8.20;99.90;;;;;;4935932;29;20287;-75
2024/01/30 11:30:42;;;;;;;600.73;551.07;;;8.20;99.90;;;;;;4944293;28;20122;-76
2024/01/30 11:33:11;;;;;;;568.87;521.20;;;8.20;99.90;;;;;;4943154;29;20310;-76
2024/01/30 11:35:38;;;;;;;538.57;497.10;;;8.20;99.90;;;;;;4943088;29;20307;-77
2024/01/30 11:38:05;;;;;;;786.53;704.63;;;8.20;99.90;;;;;;4956400;28;20279;-75
2024/01/30 11:40:32;;;;;;;584.77;539.10;;;8.20;99.90;;;;;;4954109;28;20279;-76
2024/01/30 11:43:00;;;;;;;548.93;506.80;;;8.10;99.90;;;;;;4952079;29;20299;-76
2024/01/30 11:45:27;;;;;;;750.30;671.37;;;8.10;99.90;;;;;;4950543;28;20322;-76
2024/01/30 11:47:54;;;;;;;703.20;628.87;;;8.10;99.90;;;;;;4953241;28;20290;-76
2024/01/30 11:50:20;;;;;;;696.53;628.33;;;8.10;99.90;;;;;;4927635;29;20303;-75
2024/01/30 11:52:47;;;;;;;652.57;594.63;;;8.10;99.90;;;;;;4966432;28;20389;-77
2024/01/30 11:55:14;;;;;;;790.47;706.03;;;8.10;99.90;;;;;;4954592;28;20303;-76
2024/01/30 11:57:40;;;;;;;706.90;638.83;;;8.10;99.90;;;;;;4948977;28;20287;-76
2024/01/30 12:00:10;;;;;;;565.80;520.50;;;8.20;99.90;;;;;;4950894;28;20290;-76
2024/01/30 12:02:40;;;;;;;514.65;475.25;;;8.20;99.90;;;;;;4935509;29;20055;-76
2024/01/30 12:05:06;;;;;;;543.93;502.30;;;8.20;99.90;;;;;;4950523;29;20405;-76
2024/01/30 12:07:32;;;;;;;498.80;460.50;;;8.30;99.90;;;;;;4944053;28;20386;-76
2024/01/30 12:09:58;;;;;;;515.45;475.48;;;8.30;99.90;;;;;;4941240;29;20295;-76
2024/01/30 12:12:26;;;;;;;597.53;544.40;;;8.30;99.90;;;;;;4953545;28;20055;-76
2024/01/30 12:14:53;;;;;;;607.77;553.47;;;8.30;99.90;;;;;;4953162;29;20047;-76